Time;durP1;ratioP1;P1;durP2;ratioP2;P2;SDS_P1;SDS_P2;PMS_P1;PMS_P2;Temp;Humidity;BMP_temperature;BMP_pressure;BME280_temperature;BME280_humidity;BME280_pressure;Samples;Min_cycle;Max_cycle;Signal;HPM_P1;HPM_P2
2021/01/20 00:00:22;;;;;;;28.50;16.35;;;;;;;-6.57;83.52;95303.53;4989994;28;20041;-75
2021/01/20 00:02:48;;;;;;;33.97;17.42;;;;;;;-6.43;83.73;95306.34;5017546;28;20052;-76
2021/01/20 00:05:13;;;;;;;21.52;13.10;;;;;;;-6.58;83.57;95300.19;5008626;28;20414;-76
2021/01/20 00:07:39;;;;;;;18.50;10.68;;;;;;;-6.74;84.21;95300.88;5025255;28;20033;-75
2021/01/20 00:10:05;;;;;;;16.92;10.80;;;;;;;-6.71;84.52;95310.81;5008561;28;20483;-76
2021/01/20 00:12:30;;;;;;;20.63;11.90;;;;;;;-6.79;84.35;95322.88;5009299;28;20087;-76
2021/01/20 00:14:56;;;;;;;17.75;12.07;;;;;;;-6.78;83.97;95325.34;5024739;28;20029;-75
2021/01/20 00:17:21;;;;;;;24.92;14.00;;;;;;;-6.92;84.62;95320.00;5025095;28;20037;-76
2021/01/20 00:19:47;;;;;;;26.38;15.43;;;;;;;-6.77;84.18;95334.50;5008873;28;20478;-76
2021/01/20 00:22:13;;;;;;;15.07;10.63;;;;;;;-6.73;84.51;95328.50;5008552;28;20076;-75
2021/01/20 00:24:38;;;;;;;15.27;10.10;;;;;;;-6.89;84.45;95319.88;5008803;28;20032;-76
2021/01/20 00:27:07;;;;;;;13.55;9.63;;;;;;;-7.04;84.84;95323.81;4991598;28;20025;-75
2021/01/20 00:29:33;;;;;;;15.60;9.85;;;;;;;-7.64;84.98;95208.72;5025317;28;20050;-76
2021/01/20 00:31:59;;;;;;;14.40;9.40;;;;;;;-6.99;84.89;95306.84;5007287;28;20033;-75
2021/01/20 00:34:25;;;;;;;11.75;8.90;;;;;;;-6.95;84.78;95317.59;5000447;28;20123;-75
2021/01/20 00:36:50;;;;;;;15.82;9.32;;;;;;;-6.98;84.25;95313.50;5005045;28;20032;-76
2021/01/20 00:39:17;;;;;;;14.40;9.25;;;;;;;-7.37;84.41;95247.09;4989091;28;20026;-75
2021/01/20 00:41:46;;;;;;;15.20;10.13;;;;;;;-7.02;83.86;95289.34;5005863;28;20079;-76
2021/01/20 00:44:15;;;;;;;17.63;11.50;;;;;;;-6.85;84.22;95318.91;4972653;28;20927;-76
2021/01/20 00:46:40;;;;;;;23.58;12.90;;;;;;;-6.87;83.74;95312.28;5005831;28;20407;-75
2021/01/20 00:49:06;;;;;;;29.92;18.00;;;;;;;-6.93;83.64;95323.38;4988159;28;20033;-76
2021/01/20 00:51:31;;;;;;;24.42;14.63;;;;;;;-6.95;83.77;95315.91;5005396;28;20042;-75
2021/01/20 00:53:56;;;;;;;25.50;14.20;;;;;;;-7.06;83.89;95323.03;4988089;28;20026;-75
2021/01/20 00:56:22;;;;;;;17.15;11.70;;;;;;;-7.10;84.11;95321.53;5005140;28;20061;-75
2021/01/20 00:58:47;;;;;;;15.38;10.52;;;;;;;-7.05;83.89;95318.81;5006687;28;20026;-76
2021/01/20 01:01:13;;;;;;;16.80;12.45;;;;;;;-6.99;83.46;95313.56;5024012;28;20033;-75
2021/01/20 01:03:38;;;;;;;19.60;11.48;;;;;;;-6.97;83.59;95315.13;5027262;28;20527;-76
2021/01/20 01:06:04;;;;;;;21.73;12.43;;;;;;;-6.96;83.57;95301.69;4995401;28;20087;-75
2021/01/20 01:08:29;;;;;;;35.13;19.67;;;;;;;-7.11;83.78;95292.22;5028498;28;20030;-75
2021/01/20 01:10:55;;;;;;;37.63;21.45;;;;;;;-7.01;83.56;95297.72;5028029;28;20095;-75
2021/01/20 01:13:21;;;;;;;39.92;21.98;;;;;;;-6.97;82.88;95307.59;5028576;28;20038;-75
2021/01/20 01:15:46;;;;;;;25.80;14.30;;;;;;;-7.04;83.23;95310.41;5012004;28;20623;-76
2021/01/20 01:18:12;;;;;;;28.73;16.30;;;;;;;-7.07;83.89;95318.91;5011463;28;20036;-75
2021/01/20 01:20:37;;;;;;;40.42;20.70;;;;;;;-7.07;83.59;95311.34;5028413;28;20033;-75
2021/01/20 01:23:03;;;;;;;18.73;10.48;;;;;;;-7.07;84.19;95305.50;5011301;28;20034;-75
2021/01/20 01:25:28;;;;;;;14.20;9.70;;;;;;;-6.95;84.06;95318.44;5015327;28;20407;-75
2021/01/20 01:27:53;;;;;;;19.88;11.88;;;;;;;-6.88;83.60;95318.19;5007940;28;20037;-75
2021/01/20 01:30:19;;;;;;;12.15;9.50;;;;;;;-6.81;83.83;95317.09;4992035;28;20052;-75
2021/01/20 01:32:45;;;;;;;13.23;9.73;;;;;;;-6.73;83.65;95308.34;4992888;28;20033;-75
2021/01/20 01:35:11;;;;;;;19.55;10.85;;;;;;;-6.71;83.24;95310.81;5000606;28;20032;-75
2021/01/20 01:37:36;;;;;;;19.55;12.57;;;;;;;-6.79;82.94;95300.22;5044805;28;20030;-75
2021/01/20 01:40:03;;;;;;;24.23;14.85;;;;;;;-6.79;83.27;95292.66;5010114;28;20234;-75
2021/01/20 01:42:28;;;;;;;23.65;15.00;;;;;;;-6.84;83.29;95279.47;5028149;28;20025;-76
2021/01/20 01:44:54;;;;;;;35.55;19.45;;;;;;;-6.78;83.35;95284.25;5027798;28;20087;-75
2021/01/20 01:47:20;;;;;;;43.67;22.85;;;;;;;-6.69;83.62;95278.84;5027979;28;20038;-75
2021/01/20 01:49:45;;;;;;;37.28;18.50;;;;;;;-6.73;83.40;95283.19;5011107;28;20391;-75
2021/01/20 01:52:11;;;;;;;17.05;10.73;;;;;;;-6.86;83.38;95276.16;5011169;28;20030;-75
2021/01/20 01:54:36;;;;;;;14.95;9.35;;;;;;;-7.13;83.30;95285.59;5026735;28;20036;-76
2021/01/20 01:57:02;;;;;;;15.43;8.95;;;;;;;-7.09;82.92;95272.00;4994487;28;20087;-75
2021/01/20 01:59:29;;;;;;;12.75;8.02;;;;;;;-7.10;82.93;95280.47;4995186;28;20623;-76
2021/01/20 02:01:55;;;;;;;13.18;8.68;;;;;;;-7.08;83.02;95286.22;5028186;28;20044;-75
2021/01/20 02:04:21;;;;;;;21.42;11.68;;;;;;;-7.09;83.00;95292.13;5011167;28;20025;-75
2021/01/20 02:06:48;;;;;;;14.52;9.68;;;;;;;-7.29;83.58;95295.41;5010708;28;20049;-75
2021/01/20 02:09:13;;;;;;;21.55;12.05;;;;;;;-7.45;84.46;95294.34;5011095;28;20021;-75
2021/01/20 02:12:09;;;;;;;38.20;21.05;;;;;;;-7.31;84.03;95292.13;5043667;28;20406;-74
2021/01/20 02:14:44;;;;;;;30.00;15.60;;;;;;;-7.27;83.57;95297.84;5027855;28;20596;-75
2021/01/20 02:17:16;;;;;;;53.35;24.13;;;;;;;-7.24;83.28;95300.25;5014538;28;20060;-74
2021/01/20 02:19:54;;;;;;;68.18;34.25;;;;;;;-7.37;83.29;95299.06;5023023;28;20022;-74
2021/01/20 02:22:26;;;;;;;59.20;30.30;;;;;;;-7.25;83.44;95301.94;5009056;28;20034;-74
2021/01/20 02:25:01;;;;;;;53.15;22.02;;;;;;;-7.16;83.18;95298.28;5026500;28;20029;-74
2021/01/20 02:27:36;;;;;;;26.25;15.38;;;;;;;-7.17;83.36;95296.66;5027780;28;20442;-75
2021/01/20 02:30:09;;;;;;;28.58;15.10;;;;;;;-7.17;82.84;95302.50;5027414;28;20458;-74
2021/01/20 02:32:35;;;;;;;18.15;11.05;;;;;;;-7.19;83.16;95296.69;5009372;28;20501;-74
2021/01/20 02:35:01;;;;;;;16.20;10.45;;;;;;;-7.12;83.02;95298.09;5027546;28;20028;-75
2021/01/20 02:37:26;;;;;;;21.52;11.55;;;;;;;-7.15;83.31;95290.69;5009894;28;20498;-75
2021/01/20 02:39:51;;;;;;;16.15;10.02;;;;;;;-7.08;83.47;95284.53;5027349;28;20040;-75
2021/01/20 02:42:17;;;;;;;20.40;10.55;;;;;;;-7.03;83.02;95270.09;5009948;28;20030;-74
2021/01/20 02:44:42;;;;;;;25.17;12.32;;;;;;;-6.97;83.26;95274.88;5026835;28;20030;-75
2021/01/20 02:47:08;;;;;;;24.73;11.88;;;;;;;-6.91;83.09;95263.78;5010382;28;20021;-75
2021/01/20 02:49:33;;;;;;;24.10;13.55;;;;;;;-6.85;83.20;95273.59;5009837;28;20025;-75
2021/01/20 02:52:02;;;;;;;24.50;12.75;;;;;;;-6.90;82.71;95282.22;5020632;28;20049;-75
2021/01/20 02:54:27;;;;;;;17.02;10.43;;;;;;;-6.96;82.94;95278.22;5007805;28;20495;-75
2021/01/20 02:56:53;;;;;;;14.48;9.27;;;;;;;-7.09;82.96;95282.91;5007338;28;20045;-74
2021/01/20 02:59:20;;;;;;;15.30;9.05;;;;;;;-7.15;83.21;95278.09;4990514;28;20025;-75
2021/01/20 03:01:54;;;;;;;17.17;9.40;;;;;;;-7.17;82.97;95279.03;4974347;28;20022;-75
2021/01/20 03:04:19;;;;;;;17.67;9.32;;;;;;;-7.14;82.89;95284.78;4990744;28;20112;-75
2021/01/20 03:06:45;;;;;;;22.63;13.20;;;;;;;-7.04;83.12;95281.03;4990044;28;20030;-75
2021/01/20 03:09:12;;;;;;;27.77;14.98;;;;;;;-7.04;82.66;95290.28;4990733;28;20064;-75
2021/01/20 03:11:51;;;;;;;22.95;13.40;;;;;;;-7.16;82.88;95278.97;5005939;28;20128;-75
2021/01/20 03:14:18;;;;;;;16.55;10.20;;;;;;;-7.22;82.90;95279.19;4974558;28;20529;-75
2021/01/20 03:16:44;;;;;;;12.80;8.65;;;;;;;-7.35;82.83;95285.56;4974155;28;20030;-75
2021/01/20 03:19:09;;;;;;;13.98;8.45;;;;;;;-7.45;83.36;95284.28;4973795;28;20057;-75
2021/01/20 03:21:35;;;;;;;14.48;9.68;;;;;;;-7.38;83.10;95282.38;5000455;28;20025;-75
2021/01/20 03:24:00;;;;;;;20.10;10.82;;;;;;;-7.35;83.42;95288.06;4991214;28;20396;-75
2021/01/20 03:26:26;;;;;;;17.30;12.00;;;;;;;-7.41;83.27;95283.28;5009692;28;20079;-74
2021/01/20 03:28:51;;;;;;;17.33;10.57;;;;;;;-7.33;83.05;95281.31;5025605;28;20025;-74
2021/01/20 03:31:16;;;;;;;11.20;8.40;;;;;;;-7.32;82.68;95287.16;5009800;28;20052;-75
2021/01/20 03:33:42;;;;;;;12.07;8.82;;;;;;;-7.29;82.92;95295.41;5025923;28;20026;-75
2021/01/20 03:36:07;;;;;;;15.40;9.15;;;;;;;-7.21;82.60;95292.59;5027529;28;20458;-75
2021/01/20 03:38:33;;;;;;;25.60;15.25;;;;;;;-7.26;82.66;95287.75;5009105;28;20582;-75
2021/01/20 03:40:58;;;;;;;24.10;13.68;;;;;;;-7.29;82.64;95289.56;5025817;28;20041;-75
2021/01/20 03:43:24;;;;;;;14.95;11.00;;;;;;;-7.27;82.50;95292.81;5025984;28;20052;-74
2021/01/20 03:45:49;;;;;;;16.55;11.15;;;;;;;-7.28;82.95;95304.56;4992887;28;20037;-76
2021/01/20 03:48:14;;;;;;;20.42;13.68;;;;;;;-7.28;82.45;95313.81;5027566;28;20501;-75
2021/01/20 03:50:40;;;;;;;23.95;14.38;;;;;;;-7.54;83.57;95297.16;5041280;28;20474;-75
2021/01/20 03:53:05;;;;;;;22.25;13.15;;;;;;;-7.54;84.10;95289.63;5027654;28;20502;-75
2021/01/20 03:55:31;;;;;;;19.88;12.57;;;;;;;-7.58;84.20;95301.47;5025712;28;20034;-76
2021/01/20 03:57:56;;;;;;;16.92;10.35;;;;;;;-7.63;84.11;95305.03;5027330;28;20025;-76
2021/01/20 04:00:22;;;;;;;25.15;12.32;;;;;;;-7.53;83.76;95298.81;5027498;28;20470;-75
2021/01/20 04:02:47;;;;;;;20.65;11.80;;;;;;;-7.60;83.84;95295.69;5024973;28;20026;-76
2021/01/20 04:05:13;;;;;;;20.52;11.48;;;;;;;-7.47;83.61;95291.03;5025621;28;20026;-75
2021/01/20 04:07:38;;;;;;;35.47;17.13;;;;;;;-7.45;83.30;95289.31;4991963;28;20033;-75
2021/01/20 04:10:07;;;;;;;36.85;18.83;;;;;;;-7.34;83.42;95299.78;5009255;28;20044;-75
2021/01/20 04:12:35;;;;;;;52.40;25.15;;;;;;;-7.14;83.62;95301.56;5025294;28;20041;-75
2021/01/20 04:15:01;;;;;;;26.92;15.20;;;;;;;-7.16;83.54;95298.28;5019584;28;20026;-75
2021/01/20 04:17:26;;;;;;;21.17;10.70;;;;;;;-6.80;83.10;95296.88;5005417;28;20030;-75
2021/01/20 04:19:52;;;;;;;20.55;12.65;;;;;;;-6.83;82.89;95314.63;5021641;28;20033;-75
2021/01/20 04:22:17;;;;;;;30.73;15.63;;;;;;;-6.79;82.79;95300.22;5006800;28;20512;-75
2021/01/20 04:24:43;;;;;;;21.50;12.20;;;;;;;-7.37;83.74;95309.13;5021281;28;20037;-75
2021/01/20 04:27:08;;;;;;;26.70;13.35;;;;;;;-7.63;84.84;95312.56;5022023;28;20407;-75
2021/01/20 04:29:33;;;;;;;24.98;12.77;;;;;;;-7.32;84.74;95309.78;5021233;28;20049;-75
2021/01/20 04:31:59;;;;;;;20.05;12.18;;;;;;;-7.35;83.78;95312.41;5022191;28;20037;-75
2021/01/20 04:34:24;;;;;;;24.67;12.27;;;;;;;-7.30;83.47;95313.88;5004783;28;20030;-75
2021/01/20 04:36:50;;;;;;;21.52;12.07;;;;;;;-7.12;84.32;95320.75;5004959;28;20026;-75
2021/01/20 04:39:15;;;;;;;20.83;12.45;;;;;;;-7.32;84.63;95320.63;5021580;28;20574;-75
2021/01/20 04:41:41;;;;;;;22.40;13.25;;;;;;;-7.29;85.10;95319.72;5016690;28;20030;-75
2021/01/20 04:44:06;;;;;;;15.05;8.60;;;;;;;-7.16;85.32;95333.50;4972971;28;20081;-75
2021/01/20 04:46:32;;;;;;;19.02;11.82;;;;;;;-6.97;85.76;95339.50;5004579;28;20037;-75
2021/01/20 04:48:57;;;;;;;21.33;13.18;;;;;;;-6.98;85.26;95343.69;4988882;28;20393;-75
2021/01/20 04:51:23;;;;;;;19.50;12.75;;;;;;;-6.90;85.46;95348.44;5006405;28;20041;-75
2021/01/20 04:53:48;;;;;;;22.05;11.18;;;;;;;-6.94;85.02;95357.00;5024882;28;20034;-75
2021/01/20 04:56:14;;;;;;;19.35;12.52;;;;;;;-6.89;84.87;95359.31;5008348;28;20025;-75
2021/01/20 04:58:39;;;;;;;19.48;12.55;;;;;;;-6.91;84.53;95359.38;5024535;28;20079;-75
2021/01/20 05:01:05;;;;;;;26.50;14.27;;;;;;;-7.00;84.28;95327.81;5025033;28;20490;-75
2021/01/20 05:03:30;;;;;;;29.98;15.30;;;;;;;-6.69;83.71;95360.22;5024204;28;20072;-75
2021/01/20 05:05:56;;;;;;;38.13;19.23;;;;;;;-6.72;84.02;95367.91;5008162;28;20033;-75
2021/01/20 05:08:22;;;;;;;58.10;30.00;;;;;;;-6.76;84.04;95365.53;5024525;28;20050;-76
2021/01/20 05:10:48;;;;;;;47.92;25.23;;;;;;;-6.74;84.47;95371.34;5024710;28;20022;-75
2021/01/20 05:13:27;;;;;;;183.90;68.10;;;;;;;-6.68;83.83;95374.47;4988765;28;20574;-76
2021/01/20 05:15:53;;;;;;;37.13;21.70;;;;;;;-6.59;84.01;95368.25;4988535;28;20042;-76
2021/01/20 05:18:19;;;;;;;21.83;14.63;;;;;;;-6.57;83.88;95361.44;4988673;28;20042;-76
2021/01/20 05:20:44;;;;;;;25.80;15.82;;;;;;;-6.56;83.63;95373.97;5017246;28;20033;-76
2021/01/20 05:23:10;;;;;;;46.83;26.73;;;;;;;-6.56;83.32;95375.69;5007821;28;20026;-76
2021/01/20 05:25:43;;;;;;;26.88;17.17;;;;;;;-6.52;82.34;95380.53;5004364;28;20026;-76
2021/01/20 05:28:23;;;;;;;26.63;15.32;;;;;;;-6.55;82.29;95385.66;5005214;28;20443;-75
2021/01/20 05:30:54;;;;;;;23.35;15.07;;;;;;;-6.61;82.42;95380.06;5006173;28;20125;-76
2021/01/20 05:33:24;;;;;;;23.30;14.30;;;;;;;-6.76;82.66;95383.16;4988635;28;20450;-75
2021/01/20 05:36:04;;;;;;;15.65;9.98;;;;;;;-6.77;82.81;95374.78;5004811;28;20084;-75
2021/01/20 05:38:36;;;;;;;17.13;10.40;;;;;;;-6.87;82.71;95372.69;5004393;28;20040;-76
2021/01/20 05:41:30;;;;;;;20.20;11.63;;;;;;;-6.79;82.68;95390.81;4993014;28;20025;-76
2021/01/20 05:44:12;;;;;;;31.02;21.95;;;;;;;-6.72;82.69;95387.19;5007956;28;20060;-76
2021/01/20 05:46:39;;;;;;;24.50;16.88;;;;;;;-6.66;82.83;95375.22;5007771;28;20041;-76
2021/01/20 05:49:05;;;;;;;24.05;13.75;;;;;;;-6.70;83.31;95377.88;5024432;28;20029;-76
2021/01/20 05:51:40;;;;;;;21.77;16.58;;;;;;;-6.54;83.21;95386.50;5027423;28;20466;-76
2021/01/20 05:54:05;;;;;;;26.13;17.40;;;;;;;-6.58;83.37;95385.00;5028251;28;20471;-76
2021/01/20 05:56:31;;;;;;;25.15;16.65;;;;;;;-6.51;82.63;95392.25;5027904;28;20018;-76
2021/01/20 05:58:57;;;;;;;24.30;14.65;;;;;;;-6.37;82.80;95385.84;5027566;28;20033;-76
2021/01/20 06:01:23;;;;;;;25.85;16.50;;;;;;;-6.35;82.42;95394.16;5027077;28;20041;-76
2021/01/20 06:03:49;;;;;;;27.20;17.50;;;;;;;-6.41;83.05;95387.66;5027336;28;20047;-75
2021/01/20 06:06:17;;;;;;;27.15;16.30;;;;;;;-6.51;83.07;95391.41;5027835;28;20026;-75
2021/01/20 06:08:43;;;;;;;31.67;20.38;;;;;;;-6.56;83.23;95393.31;5024165;28;20021;-75
2021/01/20 06:11:08;;;;;;;32.47;18.60;;;;;;;-6.44;83.21;95395.34;4991777;28;20083;-75
2021/01/20 06:13:35;;;;;;;31.42;20.02;;;;;;;-6.30;83.03;95394.81;5007568;28;20042;-75
2021/01/20 06:16:22;;;;;;;31.92;23.65;;;;;;;-5.90;81.97;95388.13;4991704;28;20029;-75
2021/01/20 06:18:52;;;;;;;38.92;20.08;;;;;;;-5.80;82.15;95393.59;5007646;28;20483;-76
2021/01/20 06:21:18;;;;;;;30.88;16.90;;;;;;;-6.00;82.67;95386.84;5021955;28;20072;-76
2021/01/20 06:23:48;;;;;;;28.80;17.00;;;;;;;-5.84;82.72;95393.78;5040361;28;20054;-76
2021/01/20 06:26:13;;;;;;;;;;;;;;;-5.72;82.21;95394.13;5024137;28;20499;-77
2021/01/20 06:28:43;;;;;;;23.45;14.43;;;;;;;-5.61;82.36;95388.59;5007823;28;19913;-77
2021/01/20 06:31:08;;;;;;;27.13;16.53;;;;;;;-5.47;82.16;95388.84;5020979;28;20128;-77
2021/01/20 06:33:34;;;;;;;26.58;15.88;;;;;;;-5.49;82.55;95395.69;5010739;28;20024;-77
2021/01/20 06:35:59;;;;;;;23.42;15.13;;;;;;;-5.39;82.09;95387.63;5027324;28;20030;-77
2021/01/20 06:38:28;;;;;;;30.05;17.30;;;;;;;-5.34;81.61;95388.28;5026922;28;20053;-75
2021/01/20 06:40:54;;;;;;;25.20;16.02;;;;;;;-5.11;81.16;95379.72;5029374;28;20025;-74
2021/01/20 06:43:44;;;;;;;71.72;37.75;;;;;;;-4.97;81.36;95386.66;5020965;28;20037;-78
2021/01/20 06:46:18;;;;;;;63.00;37.47;;;;;;;-5.15;82.06;95398.41;5028090;28;20402;-77
2021/01/20 06:48:55;;;;;;;31.45;19.45;;;;;;;-4.84;80.35;95391.13;4997776;28;20474;-77
2021/01/20 06:51:25;;;;;;;27.23;16.13;;;;;;;-4.76;80.63;95390.78;5020729;28;20045;-77
2021/01/20 06:54:07;;;;;;;31.65;18.83;;;;;;;-4.78;81.35;95398.41;5003600;28;20026;-77
2021/01/20 06:56:36;;;;;;;45.90;25.23;;;;;;;-5.16;83.16;95406.84;5013200;28;20038;-77
2021/01/20 06:59:21;;;;;;;50.85;28.25;;;;;;;-5.12;83.33;95420.97;5007851;28;20026;-77
2021/01/20 07:02:01;;;;;;;41.80;22.15;;;;;;;-5.13;83.37;95426.06;5006913;28;20528;-77
2021/01/20 07:04:39;;;;;;;23.42;14.50;;;;;;;-4.63;81.23;95416.31;5007731;28;20415;-77
2021/01/20 07:07:11;;;;;;;22.80;14.02;;;;;;;-4.39;80.35;95420.25;5008532;28;20088;-77
2021/01/20 07:09:49;;;;;;;27.02;13.70;;;;;;;-4.75;81.57;95432.00;4991360;28;20030;-77
2021/01/20 07:12:16;;;;;;;18.58;11.85;;;;;;;-4.54;81.38;95419.25;5006513;28;20030;-77
2021/01/20 07:14:43;;;;;;;16.60;10.65;;;;;;;-3.91;79.17;95433.13;4990670;28;20128;-77
2021/01/20 07:17:08;;;;;;;17.33;12.38;;;;;;;-3.54;77.96;95433.91;4974417;28;20550;-76
2021/01/20 07:19:37;;;;;;;20.00;14.38;;;;;;;-3.52;78.04;95440.53;4987692;28;20087;-76
2021/01/20 07:22:03;;;;;;;25.42;16.75;;;;;;;-3.15;76.85;95442.09;5025646;28;20120;-76
2021/01/20 07:24:28;;;;;;;28.00;19.40;;;;;;;-2.90;75.91;95436.59;5026568;28;20025;-77
2021/01/20 07:26:53;;;;;;;33.95;19.75;;;;;;;-2.72;75.27;95438.16;5022446;28;20084;-76
2021/01/20 07:29:23;;;;;;;26.50;18.42;;;;;;;-2.45;74.90;95438.47;5008536;28;20029;-76
2021/01/20 07:31:51;;;;;;;30.55;18.70;;;;;;;-2.49;75.18;95453.00;4990795;28;20040;-77
2021/01/20 07:34:17;;;;;;;21.70;15.48;;;;;;;-2.52;73.47;95443.03;4989619;28;20038;-77
2021/01/20 07:36:44;;;;;;;20.67;14.63;;;;;;;-2.11;72.63;95448.44;4990227;28;20087;-77
2021/01/20 07:39:20;;;;;;;17.58;10.90;;;;;;;-1.81;72.48;95449.31;4990109;28;20025;-77
2021/01/20 07:41:58;;;;;;;19.70;11.93;;;;;;;-1.75;73.35;95446.44;5006880;28;20087;-76
2021/01/20 07:44:27;;;;;;;15.88;10.80;;;;;;;-1.28;71.96;95427.69;4990404;28;20052;-76
2021/01/20 07:47:08;;;;;;;11.65;10.00;;;;;;;-0.88;69.64;95439.75;4990068;28;20018;-76
2021/01/20 07:49:34;;;;;;;15.82;10.65;;;;;;;-0.57;69.40;95437.00;5009476;28;20038;-76
2021/01/20 07:52:03;;;;;;;14.82;11.70;;;;;;;-0.51;69.79;95435.03;5025347;28;20045;-76
2021/01/20 07:54:38;;;;;;;13.93;11.47;;;;;;;-0.03;67.17;95440.47;5010616;28;20017;-77
2021/01/20 07:57:07;;;;;;;25.13;14.70;;;;;;;0.35;66.44;95445.69;5024077;28;20033;-76
2021/01/20 07:59:33;;;;;;;51.25;29.45;;;;;;;0.58;66.08;95436.59;5007843;28;20034;-76
2021/01/20 08:02:08;;;;;;;72.68;37.80;;;;;;;0.60;63.62;95437.31;5005829;28;20048;-77
2021/01/20 08:04:34;;;;;;;32.95;18.55;;;;;;;1.11;61.63;95448.41;5005379;28;20026;-77
2021/01/20 08:07:00;;;;;;;17.13;13.35;;;;;;;0.83;61.58;95453.66;4901039;28;20096;-76
2021/01/20 08:09:38;;;;;;;25.40;16.08;;;;;;;1.33;58.14;95455.44;4991806;28;20506;-76
2021/01/20 08:12:08;;;;;;;22.83;16.42;;;;;;;1.80;57.60;95449.66;4991838;28;20406;-76
2021/01/20 08:14:33;;;;;;;17.52;13.18;;;;;;;1.64;58.73;95449.09;5008600;28;20037;-77
2021/01/20 08:16:59;;;;;;;17.65;10.85;;;;;;;2.51;57.52;95440.31;5009231;28;20037;-77
2021/01/20 08:19:24;;;;;;;10.30;8.65;;;;;;;2.10;56.30;95450.09;5010281;28;20037;-75
2021/01/20 08:21:50;;;;;;;12.50;9.80;;;;;;;2.22;56.59;95446.66;4989032;28;20033;-76
2021/01/20 08:24:22;;;;;;;14.35;10.30;;;;;;;2.81;55.66;95444.94;5005474;28;20096;-75
2021/01/20 08:26:57;;;;;;;11.38;9.43;;;;;;;3.18;55.28;95456.66;5004128;28;20048;-76
2021/01/20 08:29:23;;;;;;;10.32;8.70;;;;;;;4.19;52.15;95454.91;5008272;28;20417;-76
2021/01/20 08:32:08;;;;;;;11.35;8.25;;;;;;;4.13;50.79;95448.53;5024450;28;20049;-75
2021/01/20 08:34:35;;;;;;;11.60;9.20;;;;;;;4.23;51.98;95444.31;5017938;28;20435;-75
2021/01/20 08:37:02;;;;;;;10.70;8.60;;;;;;;4.13;51.56;95445.13;4992267;28;20040;-75
2021/01/20 08:39:28;;;;;;;10.63;9.52;;;;;;;3.61;52.80;95441.47;4988630;28;20030;-74
2021/01/20 08:42:17;;;;;;;10.32;9.23;;;;;;;4.21;52.08;95441.03;4988117;28;20083;-74
2021/01/20 08:45:13;;;;;;;9.52;8.48;;;;;;;4.80;50.45;95438.03;5014530;28;20034;-74
2021/01/20 08:47:50;;;;;;;17.52;13.20;;;;;;;4.82;49.90;95445.63;5010971;28;20040;-74
2021/01/20 08:50:40;;;;;;;13.68;10.55;;;;;;;4.86;48.81;95434.16;5015576;28;20495;-74
2021/01/20 08:53:24;;;;;;;11.52;8.13;;;;;;;5.88;45.31;95432.44;5004107;28;20042;-75
2021/01/20 08:55:49;;;;;;;9.57;7.95;;;;;;;5.55;44.95;95437.84;5004903;28;20034;-74
2021/01/20 08:58:32;;;;;;;9.73;8.38;;;;;;;6.80;45.57;95434.66;5013485;28;20114;-74
2021/01/20 09:01:01;;;;;;;9.25;8.38;;;;;;;6.88;43.47;95424.47;5023903;28;20392;-75
2021/01/20 09:03:34;;;;;;;8.85;7.95;;;;;;;7.54;44.20;95421.09;5009087;28;20116;-74
2021/01/20 09:06:04;;;;;;;9.00;8.18;;;;;;;7.84;42.20;95426.81;4970388;28;20064;-74
2021/01/20 09:08:30;;;;;;;8.93;7.70;;;;;;;8.12;42.83;95437.97;5015964;28;20033;-74
2021/01/20 09:10:58;;;;;;;9.00;7.88;;;;;;;7.83;42.59;95430.31;5006915;28;20033;-74
2021/01/20 09:13:23;;;;;;;8.70;7.80;;;;;;;8.19;42.64;95439.00;5002138;28;20064;-74
2021/01/20 09:15:50;;;;;;;9.45;7.85;;;;;;;6.99;45.48;95438.16;5019409;28;20064;-74
2021/01/20 09:18:16;;;;;;;8.52;7.60;;;;;;;7.60;42.18;95421.34;5023432;28;20775;-74
2021/01/20 09:20:42;;;;;;;11.02;9.93;;;;;;;7.57;41.75;95429.38;4982219;28;20052;-74
2021/01/20 09:23:07;;;;;;;9.32;7.95;;;;;;;8.48;42.96;95427.75;5004211;28;20018;-74
2021/01/20 09:25:33;;;;;;;13.27;8.50;;;;;;;8.22;42.62;95417.28;5017807;28;20475;-74
2021/01/20 09:28:01;;;;;;;12.27;8.88;;;;;;;7.45;43.38;95415.00;5028244;28;20112;-74
2021/01/20 09:30:27;;;;;;;9.98;9.02;;;;;;;6.86;44.06;95410.13;4982547;28;20414;-74
2021/01/20 09:32:52;;;;;;;9.23;8.07;;;;;;;7.18;43.07;95412.38;5025242;28;20046;-74
2021/01/20 09:35:18;;;;;;;10.73;8.77;;;;;;;6.06;45.32;95407.75;5007964;28;20022;-74
2021/01/20 09:37:44;;;;;;;9.93;8.88;;;;;;;5.99;44.58;95405.84;5005085;28;20034;-73
2021/01/20 09:40:11;;;;;;;18.55;10.82;;;;;;;5.72;46.43;95408.97;5006044;28;20029;-74
2021/01/20 09:42:38;;;;;;;14.32;9.13;;;;;;;7.01;45.72;95397.63;5010786;28;20533;-74
2021/01/20 09:45:05;;;;;;;8.73;7.90;;;;;;;7.78;42.45;95380.97;5027295;28;20018;-74
2021/01/20 09:47:31;;;;;;;9.75;6.85;;;;;;;7.99;41.34;95388.47;5011247;28;20032;-74
2021/01/20 09:49:56;;;;;;;7.45;6.20;;;;;;;7.80;41.72;95379.06;5027680;28;20108;-74
2021/01/20 09:52:25;;;;;;;7.65;6.18;;;;;;;8.19;42.54;95384.00;5026950;28;20030;-74
2021/01/20 09:54:54;;;;;;;7.97;7.22;;;;;;;8.45;41.00;95374.63;5011080;28;20028;-73
2021/01/20 09:57:21;;;;;;;10.00;7.32;;;;;;;8.41;42.50;95373.31;5012773;28;20357;-74
2021/01/20 09:59:46;;;;;;;7.82;7.05;;;;;;;8.72;40.52;95374.56;5006834;28;20033;-72
2021/01/20 10:02:12;;;;;;;11.00;7.15;;;;;;;8.29;41.05;95374.47;4994765;28;20026;-72
2021/01/20 10:04:37;;;;;;;7.50;6.78;;;;;;;8.13;39.86;95369.91;5019174;28;20037;-72
2021/01/20 10:07:03;;;;;;;8.35;6.80;;;;;;;7.22;39.77;95373.34;5015690;28;20148;-72
2021/01/20 10:09:28;;;;;;;8.27;7.15;;;;;;;9.08;40.22;95374.50;5011161;28;20038;-72
2021/01/20 10:11:54;;;;;;;7.15;6.47;;;;;;;8.24;41.18;95377.47;5007581;28;20053;-72
2021/01/20 10:14:19;;;;;;;7.15;6.45;;;;;;;8.85;38.07;95363.84;5020805;28;20037;-72
2021/01/20 10:16:46;;;;;;;8.27;7.47;;;;;;;7.85;41.66;95361.41;5010757;28;20122;-72
2021/01/20 10:19:15;;;;;;;9.55;7.80;;;;;;;8.72;41.17;95361.66;5005836;28;20030;-72
2021/01/20 10:21:41;;;;;;;9.80;8.10;;;;;;;7.56;41.71;95358.16;5013577;28;20033;-72
2021/01/20 10:24:07;;;;;;;8.40;7.70;;;;;;;7.32;42.10;95350.13;5004759;28;20495;-72
2021/01/20 10:26:33;;;;;;;12.60;7.20;;;;;;;9.23;39.47;95357.47;5022886;28;20034;-71
2021/01/20 10:28:58;;;;;;;11.85;7.35;;;;;;;10.06;38.78;95356.72;5024816;28;20033;-72
2021/01/20 10:31:28;;;;;;;8.15;6.80;;;;;;;10.06;35.93;95351.53;5027971;28;20513;-72
2021/01/20 10:33:54;;;;;;;7.53;6.82;;;;;;;8.11;38.46;95342.66;5018366;28;20030;-72
2021/01/20 10:36:19;;;;;;;8.23;6.55;;;;;;;9.97;37.44;95337.78;5017094;28;20052;-71
2021/01/20 10:38:46;;;;;;;10.00;7.50;;;;;;;9.84;37.34;95345.19;5012516;28;20552;-72
2021/01/20 10:41:11;;;;;;;11.20;6.75;;;;;;;8.85;37.34;95336.25;5014208;28;20095;-72
2021/01/20 10:43:37;;;;;;;7.38;6.65;;;;;;;9.44;38.12;95330.28;5013310;28;20488;-72
2021/01/20 10:46:03;;;;;;;7.93;7.13;;;;;;;10.12;37.06;95327.63;4997699;28;20038;-72
2021/01/20 10:48:28;;;;;;;8.23;7.20;;;;;;;10.81;37.07;95327.25;4974834;28;20519;-72
2021/01/20 10:50:54;;;;;;;11.82;7.93;;;;;;;9.74;36.23;95330.75;5025953;28;20114;-72
2021/01/20 10:53:19;;;;;;;9.82;8.05;;;;;;;9.98;36.81;95323.88;5028539;28;20491;-72
2021/01/20 10:55:47;;;;;;;9.52;7.60;;;;;;;10.14;38.32;95319.75;5026085;28;20041;-72
2021/01/20 10:58:13;;;;;;;9.18;8.02;;;;;;;10.32;38.02;95325.59;5009088;28;20116;-71
2021/01/20 11:00:38;;;;;;;10.13;9.10;;;;;;;10.29;37.13;95323.31;5026554;28;20163;-72
2021/01/20 11:03:03;;;;;;;8.80;7.82;;;;;;;10.99;37.13;95321.88;5025274;28;20017;-71
2021/01/20 11:05:29;;;;;;;12.07;8.77;;;;;;;11.17;35.99;95321.69;5009432;28;20025;-72
2021/01/20 11:07:54;;;;;;;11.05;9.90;;;;;;;9.78;37.54;95325.13;5025393;28;20032;-72
2021/01/20 11:10:20;;;;;;;11.25;9.00;;;;;;;10.32;37.43;95320.41;5027918;28;20025;-72
2021/01/20 11:12:46;;;;;;;11.07;9.82;;;;;;;10.21;38.44;95323.31;5018905;28;20048;-72
2021/01/20 11:15:12;;;;;;;12.07;10.23;;;;;;;11.21;36.79;95322.97;5004338;28;20105;-71
2021/01/20 11:17:37;;;;;;;11.68;9.13;;;;;;;10.61;37.37;95317.34;5026060;28;20029;-72
2021/01/20 11:20:03;;;;;;;10.73;9.45;;;;;;;10.52;37.01;95307.00;5024955;28;20033;-72
2021/01/20 11:22:29;;;;;;;12.18;9.23;;;;;;;9.32;39.00;95317.78;5012404;28;20030;-72
2021/01/20 11:25:00;;;;;;;12.18;10.50;;;;;;;10.45;38.29;95307.81;5039885;28;20510;-72
2021/01/20 11:27:27;;;;;;;13.63;10.73;;;;;;;9.59;38.29;95309.03;5025957;28;20113;-71